createdAt,value
2018-09-01T00:00:10.146Z,9.70
2018-09-01T00:01:42.416Z,11.20
2018-09-01T00:03:13.046Z,10.40
2018-09-01T00:04:44.616Z,11.20
2018-09-01T00:06:16.298Z,11.70
2018-09-01T00:07:47.764Z,11.60
2018-09-01T00:09:19.340Z,11.20
2018-09-01T00:10:50.913Z,12.90
2018-09-01T00:12:22.585Z,10.50
2018-09-01T00:13:54.059Z,11.40
2018-09-01T00:15:25.634Z,10.40
2018-09-01T00:16:57.207Z,10.90
2018-09-01T00:18:29.181Z,13.00
2018-09-01T00:20:00.354Z,10.40
2018-09-01T00:21:31.927Z,13.20
2018-09-01T00:23:03.503Z,11.80
2018-09-01T00:24:35.174Z,11.60
2018-09-01T00:26:06.649Z,11.80
2018-09-01T00:27:38.221Z,14.70
2018-09-01T00:29:09.795Z,11.70
2018-09-01T00:30:41.485Z,13.20
2018-09-01T00:32:12.941Z,10.40
2018-09-01T00:33:44.515Z,13.10
2018-09-01T00:35:16.089Z,11.40
2018-09-01T00:36:47.813Z,11.30
2018-09-01T00:38:19.237Z,10.70
2018-09-01T00:39:50.809Z,12.80
2018-09-01T00:41:22.382Z,11.10
2018-09-01T00:42:54.057Z,10.80
2018-09-01T00:44:25.528Z,11.90
2018-09-01T00:45:57.102Z,13.00
2018-09-01T00:47:28.675Z,12.10
2018-09-01T00:49:00.549Z,13.00
2018-09-01T00:50:31.821Z,12.50
2018-09-01T00:52:03.398Z,14.60
2018-09-01T00:53:34.968Z,11.30
2018-09-01T00:55:06.742Z,12.50
2018-09-01T00:56:38.116Z,13.60
2018-09-01T00:58:09.689Z,12.50
2018-09-01T00:59:41.263Z,13.50
2018-09-01T01:01:12.986Z,12.40
2018-09-01T01:02:44.410Z,12.90
2018-09-01T01:04:15.981Z,15.30
2018-09-01T01:05:47.555Z,14.00
2018-09-01T01:07:19.129Z,13.40
2018-09-01T01:08:50.702Z,14.80
2018-09-01T01:10:22.279Z,14.30
2018-09-01T01:11:53.850Z,15.90
2018-09-01T01:13:25.672Z,16.90
2018-09-01T01:14:56.995Z,22.70
2018-09-01T01:16:28.568Z,20.70
2018-09-01T01:18:00.145Z,13.50
2018-09-01T01:19:32.060Z,17.40
2018-09-01T01:21:03.288Z,16.90
2018-09-01T01:22:34.860Z,16.80
2018-09-01T01:24:06.434Z,16.20
2018-09-01T01:25:38.359Z,15.20
2018-09-01T01:27:09.633Z,15.40
2018-09-01T01:28:41.155Z,15.30
2018-09-01T01:30:12.727Z,15.20
2018-09-01T01:31:44.549Z,13.60
2018-09-01T01:33:15.872Z,16.40
2018-09-01T01:34:47.444Z,16.80
2018-09-01T01:36:19.017Z,15.20
2018-09-01T01:37:50.592Z,16.80
2018-09-01T01:39:22.165Z,17.20
2018-09-01T01:40:53.736Z,15.00
2018-09-01T01:42:25.311Z,17.80
2018-09-01T01:43:56.983Z,18.10
2018-09-01T01:45:28.456Z,18.30
2018-09-01T01:47:00.028Z,16.20
2018-09-01T01:48:31.602Z,18.70
2018-09-01T01:50:03.576Z,18.50
2018-09-01T01:51:34.797Z,17.50
2018-09-01T01:53:06.320Z,19.40
2018-09-01T01:54:37.893Z,17.50
2018-09-01T01:56:09.772Z,17.60
2018-09-01T01:57:41.039Z,17.80
2018-09-01T01:59:12.612Z,20.30
2018-09-01T02:00:44.184Z,18.90
2018-09-01T02:02:15.760Z,21.20
2018-09-01T02:03:47.334Z,20.60
2018-09-01T02:05:18.902Z,24.60
2018-09-01T02:06:50.475Z,21.50
2018-09-01T02:08:22.299Z,20.60
2018-09-01T02:09:53.649Z,19.40
2018-09-01T02:11:25.196Z,19.00
2018-09-01T02:12:56.765Z,27.30
2018-09-01T02:14:28.640Z,33.00
2018-09-01T02:15:59.912Z,33.80
2018-09-01T02:17:31.486Z,26.70
2018-09-01T02:19:03.062Z,29.60
2018-09-01T02:20:34.931Z,30.10
2018-09-01T02:22:06.205Z,28.50
2018-09-01T02:23:37.815Z,32.60
2018-09-01T02:25:09.349Z,31.50
2018-09-01T02:26:41.372Z,30.10
2018-09-01T02:28:13.049Z,28.90
2018-09-01T02:29:44.072Z,32.80
2018-09-01T02:31:15.663Z,33.70
2018-09-01T02:32:47.216Z,32.00
2018-09-01T02:34:18.792Z,34.90
2018-09-01T02:35:50.361Z,32.90
2018-09-01T02:37:21.934Z,33.60
2018-09-01T02:38:53.608Z,35.20
2018-09-01T02:40:25.081Z,37.70
2018-09-01T02:41:56.653Z,41.10
2018-09-01T02:43:28.228Z,36.60
2018-09-01T02:45:00.003Z,38.50
2018-09-01T02:46:31.374Z,36.40
2018-09-01T02:48:02.948Z,37.50
2018-09-01T02:49:34.522Z,37.20
2018-09-01T02:51:06.395Z,36.20
2018-09-01T02:52:37.667Z,32.30
2018-09-01T02:54:09.243Z,35.80
2018-09-01T02:55:40.815Z,38.20
2018-09-01T02:57:12.388Z,35.80
2018-09-01T02:58:43.961Z,37.40
2018-09-01T03:00:15.535Z,36.40
2018-09-01T03:01:47.109Z,38.90
2018-09-01T03:03:19.082Z,34.60
2018-09-01T03:04:50.458Z,36.80
2018-09-01T03:06:21.829Z,37.10
2018-09-01T03:07:53.402Z,32.90
2018-09-01T03:09:25.129Z,35.40
2018-09-01T03:10:56.559Z,36.50
2018-09-01T03:12:28.122Z,34.80
2018-09-01T03:13:59.697Z,38.90
2018-09-01T03:15:31.423Z,29.40
2018-09-01T03:17:02.843Z,32.90
2018-09-01T03:18:34.422Z,30.60
2018-09-01T03:20:05.990Z,36.00
2018-09-01T03:21:38.008Z,32.50
2018-09-01T03:23:09.137Z,29.50
2018-09-01T03:24:40.711Z,34.10
2018-09-01T03:26:12.288Z,29.60
2018-09-01T03:27:43.958Z,32.80
2018-09-01T03:29:15.434Z,28.60
2018-09-01T03:30:47.005Z,32.00
2018-09-01T03:32:18.578Z,27.40
2018-09-01T03:33:50.153Z,32.70
2018-09-01T03:35:21.726Z,32.70
2018-09-01T03:36:53.299Z,28.90
2018-09-01T03:38:24.873Z,32.20
2018-09-01T03:39:56.597Z,32.70
2018-09-01T03:41:28.020Z,28.70
2018-09-01T03:42:59.596Z,32.70
2018-09-01T03:44:31.167Z,33.60
2018-09-01T03:46:02.844Z,30.70
2018-09-01T03:47:34.314Z,31.30
2018-09-01T03:49:05.888Z,31.10
2018-09-01T03:50:37.463Z,31.80
2018-09-01T03:52:09.335Z,31.00
2018-09-01T03:53:40.616Z,31.20
2018-09-01T03:55:12.182Z,32.70
2018-09-01T03:56:43.755Z,27.40
2018-09-01T03:58:15.480Z,27.40
2018-09-01T03:59:46.902Z,29.50
2018-09-01T04:01:18.476Z,27.90
2018-09-01T04:02:50.052Z,27.60
2018-09-01T04:04:21.627Z,27.00
2018-09-01T04:05:53.198Z,31.90
2018-09-01T04:07:24.769Z,27.10
2018-09-01T04:08:56.346Z,25.20
2018-09-01T04:10:27.916Z,26.60
2018-09-01T04:11:59.489Z,20.90
2018-09-01T04:13:31.062Z,23.00
2018-09-01T04:15:02.635Z,23.20
2018-09-01T04:16:34.761Z,26.00
2018-09-01T04:18:05.791Z,21.30
2018-09-01T04:19:37.355Z,24.80
2018-09-01T04:21:08.928Z,23.40
2018-09-01T04:22:40.801Z,25.60
2018-09-01T04:24:12.075Z,23.20
2018-09-01T04:25:43.651Z,22.20
2018-09-01T04:27:15.220Z,27.00
2018-09-01T04:28:46.892Z,25.40
2018-09-01T04:30:18.365Z,23.90
2018-09-01T04:31:49.957Z,22.60
2018-09-01T04:33:21.511Z,23.90
2018-09-01T04:34:53.269Z,20.10
2018-09-01T04:36:24.656Z,23.30
2018-09-01T04:37:56.230Z,24.30
2018-09-01T04:39:27.801Z,25.30
2018-09-01T04:40:59.372Z,25.30
2018-09-01T04:42:30.953Z,30.40
2018-09-01T04:44:02.517Z,25.20
2018-09-01T04:45:34.089Z,22.50
2018-09-01T04:47:05.949Z,23.20
2018-09-01T04:48:37.233Z,22.60
2018-09-01T04:50:08.807Z,28.80
2018-09-01T04:51:40.379Z,26.90
2018-09-01T04:53:12.351Z,27.50
2018-09-01T04:54:43.522Z,25.60
2018-09-01T04:56:15.126Z,26.30
2018-09-01T04:57:46.666Z,27.90
2018-09-01T04:59:18.236Z,27.50
2018-09-01T05:00:49.900Z,33.00
2018-09-01T05:02:21.383Z,23.90
2018-09-01T05:03:53.460Z,25.70
2018-09-01T05:05:24.527Z,32.30
2018-09-01T05:06:56.096Z,27.00
2018-09-01T05:08:27.681Z,30.50
2018-09-01T05:09:59.239Z,23.50
2018-09-01T05:11:30.933Z,26.00
2018-09-01T05:13:02.383Z,30.60
2018-09-01T05:14:33.954Z,32.70
2018-09-01T05:16:05.539Z,33.60
2018-09-01T05:17:37.097Z,38.70
2018-09-01T05:19:08.669Z,35.20
2018-09-01T05:20:40.242Z,34.10
2018-09-01T05:22:11.812Z,39.10
2018-09-01T05:23:43.685Z,32.10
2018-09-01T05:25:14.956Z,38.60
2018-09-01T05:26:46.528Z,48.60
2018-09-01T05:28:18.100Z,39.40
2018-09-01T05:29:49.770Z,39.50
2018-09-01T05:31:21.245Z,33.40
2018-09-01T05:32:52.813Z,32.70
2018-09-01T05:34:24.384Z,31.40
2018-09-01T05:35:55.958Z,30.20
2018-09-01T05:37:27.527Z,31.70
2018-09-01T05:38:59.098Z,33.90
2018-09-01T05:40:30.669Z,35.30
2018-09-01T05:42:02.259Z,33.40
2018-09-01T05:43:33.869Z,35.60
2018-09-01T05:45:05.387Z,35.70
2018-09-01T05:46:36.954Z,39.30
2018-09-01T05:48:08.625Z,39.70
2018-09-01T05:49:40.100Z,45.40
2018-09-01T05:51:11.668Z,41.90
2018-09-01T05:52:43.238Z,40.00
2018-09-01T05:54:15.110Z,43.90
2018-09-01T05:55:46.381Z,38.60
2018-09-01T05:57:17.952Z,41.00
2018-09-01T05:58:49.525Z,38.70
2018-09-01T06:00:21.096Z,42.10
2018-09-01T06:01:52.666Z,43.30
2018-09-01T06:03:24.238Z,37.80
2018-09-01T06:04:55.807Z,37.40
2018-09-01T06:06:27.577Z,42.90
2018-09-01T06:07:58.953Z,46.20
2018-09-01T06:09:30.520Z,44.90
2018-09-01T06:11:02.092Z,43.90
2018-09-01T06:12:33.663Z,48.40
2018-09-01T06:14:05.233Z,50.00
2018-09-01T06:15:36.805Z,52.20
2018-09-01T06:17:08.376Z,51.10
2018-09-01T06:18:40.050Z,51.20
2018-09-01T06:20:11.518Z,48.60
2018-09-01T06:21:43.088Z,50.50
2018-09-01T06:23:14.660Z,48.00
2018-09-01T06:24:46.672Z,49.80
2018-09-01T06:26:17.801Z,44.60
2018-09-01T06:27:49.373Z,44.10
2018-09-01T06:29:20.943Z,44.30
2018-09-01T06:30:52.717Z,44.00
2018-09-01T06:32:24.085Z,48.80
2018-09-01T06:33:55.655Z,45.40
2018-09-01T06:35:27.229Z,50.30
2018-09-01T06:36:58.802Z,45.10
2018-09-01T06:38:30.368Z,49.80
2018-09-01T06:40:01.939Z,51.50
2018-09-01T06:41:33.509Z,49.30
2018-09-01T06:43:05.244Z,49.30
2018-09-01T06:44:36.651Z,50.40
2018-09-01T06:46:08.222Z,47.40
2018-09-01T06:47:39.792Z,49.10
2018-09-01T06:49:11.363Z,47.10
2018-09-01T06:50:42.933Z,45.30
2018-09-01T06:52:14.504Z,48.90
2018-09-01T06:53:46.075Z,46.60
2018-09-01T06:55:17.946Z,45.50
2018-09-01T06:56:49.220Z,51.10
2018-09-01T06:58:20.787Z,49.10
2018-09-01T06:59:52.359Z,50.70
2018-09-01T07:01:24.028Z,50.30
2018-09-01T07:02:55.498Z,50.80
2018-09-01T07:04:27.070Z,46.60
2018-09-01T07:05:58.662Z,46.50
2018-09-01T07:07:30.212Z,48.80
2018-09-01T07:09:01.782Z,44.80
2018-09-01T07:10:33.352Z,49.40
2018-09-01T07:12:04.923Z,46.30
2018-09-01T07:13:36.495Z,42.40
2018-09-01T07:15:08.063Z,47.70
2018-09-01T07:16:39.634Z,42.60
2018-09-01T07:18:11.204Z,42.10
2018-09-01T07:19:42.975Z,44.20
2018-09-01T07:21:14.346Z,46.10
2018-09-01T07:22:45.916Z,44.20
2018-09-01T07:24:17.487Z,46.80
2018-09-01T07:25:49.360Z,45.90
2018-09-01T07:27:20.631Z,44.40
2018-09-01T07:28:52.200Z,47.70
2018-09-01T07:30:23.796Z,43.60
2018-09-01T07:31:55.345Z,39.00
2018-09-01T07:33:26.909Z,45.00
2018-09-01T07:34:58.480Z,45.60
2018-09-01T07:36:30.050Z,45.00
2018-09-01T07:38:01.775Z,45.50
2018-09-01T07:39:33.196Z,49.40
2018-09-01T07:41:04.761Z,44.80
2018-09-01T07:42:36.332Z,45.10
2018-09-01T07:44:07.903Z,40.20
2018-09-01T07:45:39.475Z,36.80
2018-09-01T07:47:11.043Z,28.80
2018-09-01T07:48:42.615Z,23.50
2018-09-01T07:50:14.185Z,26.50
2018-09-01T07:51:45.755Z,23.50
2018-09-01T07:53:17.326Z,22.50
2018-09-01T07:54:48.896Z,22.80
2018-09-01T07:56:21.011Z,21.70
2018-09-01T07:57:52.036Z,22.50
2018-09-01T07:59:23.607Z,25.70
2018-09-01T08:00:55.381Z,20.70
2018-09-01T08:02:26.749Z,20.50
2018-09-01T08:03:58.319Z,21.50
2018-09-01T08:05:29.890Z,17.80
2018-09-01T08:07:01.461Z,18.90
2018-09-01T08:08:33.033Z,19.90
2018-09-01T08:10:04.604Z,18.60
2018-09-01T08:11:36.175Z,19.80
2018-09-01T08:13:07.746Z,19.50
2018-09-01T08:14:39.593Z,17.00
2018-09-01T08:16:10.891Z,17.50
2018-09-01T08:17:42.464Z,19.60
2018-09-01T08:19:14.031Z,22.70
2018-09-01T08:20:45.603Z,20.70
2018-09-01T08:22:17.173Z,20.70
2018-09-01T08:23:48.744Z,16.40
2018-09-01T08:25:20.351Z,18.40
2018-09-01T08:26:52.189Z,18.60
2018-09-01T08:28:23.458Z,19.90
2018-09-01T08:29:55.031Z,23.90
2018-09-01T08:31:26.602Z,18.70
2018-09-01T08:32:58.324Z,20.20
2018-09-01T08:34:29.745Z,20.10
2018-09-01T08:36:01.317Z,18.00
2018-09-01T08:37:32.890Z,20.40
2018-09-01T08:39:04.460Z,18.90
2018-09-01T08:40:36.037Z,23.30
2018-09-01T08:42:07.603Z,18.40
2018-09-01T08:43:39.175Z,19.40
2018-09-01T08:45:10.749Z,19.60
2018-09-01T08:46:42.317Z,16.40
2018-09-01T08:48:13.889Z,18.90
2018-09-01T08:49:45.462Z,18.40
2018-09-01T08:51:17.184Z,17.50
2018-09-01T08:52:48.604Z,16.70
2018-09-01T08:54:20.175Z,18.90
2018-09-01T08:55:51.747Z,18.00
2018-09-01T08:57:23.619Z,19.20
2018-09-01T08:58:54.892Z,20.50
2018-09-01T09:00:26.463Z,17.40
2018-09-01T09:01:58.037Z,18.10
2018-09-01T09:03:29.607Z,21.10
2018-09-01T09:05:01.176Z,19.20
2018-09-01T09:06:32.747Z,22.40
2018-09-01T09:08:04.318Z,21.50
2018-09-01T09:09:36.045Z,18.60
2018-09-01T09:11:07.466Z,18.30
2018-09-01T09:12:39.033Z,21.70
2018-09-01T09:14:10.604Z,21.90
2018-09-01T09:17:13.748Z,20.00
2018-09-01T09:18:45.324Z,20.50
2018-09-01T09:20:16.891Z,23.70
2018-09-01T09:21:48.462Z,20.20
2018-09-01T09:23:20.034Z,28.70
2018-09-01T09:24:51.808Z,26.10
2018-09-01T09:26:23.180Z,23.60
2018-09-01T09:27:54.747Z,22.00
2018-09-01T09:29:26.870Z,29.00
2018-09-01T09:32:29.462Z,23.40
2018-09-01T09:34:01.034Z,26.30
2018-09-01T09:35:32.609Z,20.30
2018-09-01T09:38:35.750Z,21.40
2018-09-01T09:40:07.322Z,26.20
2018-09-01T09:41:38.893Z,26.20
2018-09-01T09:43:10.473Z,25.40
2018-09-01T09:44:42.342Z,24.90
2018-09-01T09:46:13.613Z,24.40
2018-09-01T09:47:45.288Z,26.20
2018-09-01T09:49:16.757Z,24.30
2018-09-01T09:50:49.423Z,27.20
2018-09-01T09:52:19.903Z,23.10
2018-09-01T09:53:53.197Z,23.60
2018-09-01T09:55:23.051Z,25.60
2018-09-01T09:58:26.271Z,29.10
2018-09-01T09:59:58.275Z,22.20
2018-09-01T10:01:29.349Z,24.90
2018-09-01T10:03:01.486Z,23.30
2018-09-01T10:04:32.496Z,26.40
2018-09-01T10:06:04.174Z,21.70
2018-09-01T10:07:41.915Z,23.30
2018-09-01T10:09:07.423Z,23.20
2018-09-01T10:13:42.149Z,19.50
2018-09-01T10:15:13.522Z,20.20
2018-09-01T10:16:45.098Z,20.70
2018-09-01T10:18:16.674Z,19.10
2018-09-01T10:21:20.077Z,18.20
2018-09-01T10:22:51.946Z,19.50
2018-09-01T10:24:22.979Z,19.10
2018-09-01T10:25:54.556Z,16.90
2018-09-01T10:27:26.131Z,19.50
2018-09-01T10:30:29.290Z,17.20
2018-09-01T10:32:00.862Z,19.20
2018-09-01T10:33:32.739Z,18.10
2018-09-01T10:35:04.015Z,16.00
2018-09-01T10:36:35.795Z,16.80
2018-09-01T10:38:07.170Z,19.40
2018-09-01T10:41:10.678Z,18.00
2018-09-01T10:42:42.104Z,18.20
2018-09-01T10:44:13.479Z,18.10
2018-09-01T10:45:45.059Z,18.90
2018-09-01T10:47:16.838Z,19.30
2018-09-01T10:48:48.214Z,19.80
2018-09-01T10:50:19.792Z,18.90
2018-09-01T10:51:51.674Z,17.70
2018-09-01T10:53:22.947Z,21.20
2018-09-01T10:54:55.073Z,19.70
2018-09-01T10:56:26.108Z,17.10
2018-09-01T10:57:57.885Z,20.30
2018-09-01T10:59:30.043Z,19.80
2018-09-01T11:01:00.845Z,18.40
2018-09-01T11:04:04.202Z,24.00
2018-09-01T11:05:35.952Z,24.10
2018-09-01T11:07:07.158Z,18.70
2018-09-01T11:08:38.738Z,20.10
2018-09-01T11:10:10.313Z,17.70
2018-09-01T11:11:41.900Z,18.70
2018-09-01T11:13:13.474Z,19.20
2018-09-01T11:14:45.051Z,17.90
2018-09-01T11:16:16.834Z,17.90
2018-09-01T11:17:48.360Z,18.00
2018-09-01T11:19:20.331Z,17.00
2018-09-01T11:20:51.732Z,16.90
2018-09-01T11:22:22.950Z,17.20
2018-09-01T11:23:54.529Z,16.30
2018-09-01T11:25:26.110Z,18.60
2018-09-01T11:26:57.689Z,18.10
2018-09-01T11:28:29.270Z,16.70
2018-09-01T11:30:00.851Z,18.00
2018-09-01T11:33:04.235Z,16.90
2018-09-01T11:34:35.820Z,15.30
2018-09-01T11:36:07.620Z,19.80
2018-09-01T11:37:38.753Z,17.20
2018-09-01T11:39:10.335Z,15.90
2018-09-01T11:40:41.917Z,21.90
2018-09-01T11:42:13.497Z,17.10
2018-09-01T11:43:45.282Z,16.30
2018-09-01T11:45:16.660Z,19.00
2018-09-01T11:46:48.850Z,16.80
2018-09-01T11:48:19.939Z,19.00
2018-09-01T11:49:51.450Z,18.50
2018-09-01T11:51:22.988Z,21.20
2018-09-01T11:52:55.088Z,17.80
2018-09-01T11:54:26.356Z,16.60
2018-09-01T11:55:57.736Z,18.50
2018-09-01T11:57:29.327Z,14.40
2018-09-01T11:59:00.912Z,18.60
2018-09-01T12:02:04.167Z,15.90
2018-09-01T12:03:35.647Z,13.90
2018-09-01T12:05:07.228Z,14.60
2018-09-01T12:08:10.393Z,13.90
2018-09-01T12:11:13.562Z,14.50
2018-09-01T12:14:17.770Z,14.70
2018-09-01T12:15:48.367Z,15.90
2018-09-01T12:17:20.197Z,15.80
2018-09-01T12:18:51.475Z,14.30
2018-09-01T12:20:23.260Z,14.00
2018-09-01T12:23:26.225Z,14.40
2018-09-01T12:24:57.808Z,15.40
2018-09-01T12:26:29.491Z,15.90
2018-09-01T12:28:01.024Z,14.90
2018-09-01T12:29:32.558Z,13.40
2018-09-01T12:31:04.444Z,14.80
2018-09-01T12:32:35.974Z,13.80
2018-09-01T12:34:07.308Z,14.80
2018-09-01T12:35:39.195Z,13.70
2018-09-01T12:37:10.677Z,11.50
2018-09-01T12:38:42.462Z,11.80
2018-09-01T12:41:45.226Z,12.90
2018-09-01T12:44:48.695Z,12.10
2018-09-01T12:47:51.777Z,13.80
2018-09-01T12:49:23.449Z,14.60
2018-09-01T12:50:55.782Z,13.80
2018-09-01T12:53:58.099Z,11.10
2018-09-01T12:55:29.481Z,13.80
2018-09-01T12:57:01.165Z,12.00
2018-09-01T12:58:33.193Z,13.50
2018-09-01T13:00:04.436Z,11.60
2018-09-01T13:01:36.121Z,10.90
2018-09-01T13:06:11.174Z,10.40
2018-09-01T13:07:42.362Z,11.60
2018-09-01T13:09:13.744Z,11.20
2018-09-01T13:12:17.009Z,11.10
2018-09-01T13:13:48.493Z,10.40
2018-09-01T13:15:20.281Z,10.60
2018-09-01T13:18:23.347Z,11.10
2018-09-01T13:19:54.831Z,15.80
2018-09-01T13:21:26.427Z,12.30
2018-09-01T13:22:58.004Z,10.10
2018-09-01T13:26:01.725Z,9.20
2018-09-01T13:27:33.301Z,9.40
2018-09-01T13:32:07.509Z,11.40
2018-09-01T13:33:39.093Z,9.10
2018-09-01T13:35:10.678Z,9.20
2018-09-01T13:36:42.265Z,8.90
2018-09-01T13:38:14.149Z,9.10
2018-09-01T13:39:45.435Z,8.60
2018-09-01T13:42:48.602Z,12.50
2018-09-01T13:44:20.590Z,8.80
2018-09-01T13:45:51.773Z,9.10
2018-09-01T13:47:23.663Z,8.60
2018-09-01T13:48:54.943Z,8.20
2018-09-01T13:50:26.530Z,8.90
2018-09-01T13:51:58.114Z,8.50
2018-09-01T13:55:01.286Z,8.20
2018-09-01T13:56:32.871Z,7.80
2018-09-01T13:58:04.457Z,8.20
2018-09-01T13:59:36.044Z,8.60
2018-09-01T14:02:39.463Z,8.40
2018-09-01T14:04:11.105Z,8.70
2018-09-01T14:05:42.385Z,8.90
2018-09-01T14:08:46.199Z,9.90
2018-09-01T14:11:48.731Z,8.90
2018-09-01T14:13:20.316Z,8.20
2018-09-01T14:14:52.661Z,7.90
2018-09-01T14:16:23.487Z,7.80
2018-09-01T14:21:00.573Z,6.80
2018-09-01T14:22:29.833Z,7.60
2018-09-01T14:24:01.961Z,6.80
2018-09-01T14:27:05.096Z,6.30
2018-09-01T14:28:36.385Z,5.80
2018-09-01T14:31:39.354Z,5.20
2018-09-01T14:33:11.042Z,5.70
2018-09-01T14:34:42.565Z,5.20
2018-09-01T14:36:14.117Z,5.00
2018-09-01T14:37:45.703Z,5.40
2018-09-01T14:40:49.079Z,5.00
2018-09-01T14:42:20.464Z,5.20
2018-09-01T14:43:52.255Z,5.00
2018-09-01T14:45:23.639Z,4.70
2018-09-01T14:48:26.832Z,4.80
2018-09-01T14:49:58.401Z,5.40
2018-09-01T14:51:30.256Z,4.70
2018-09-01T14:53:01.614Z,5.00
2018-09-01T14:54:33.372Z,5.10
2018-09-01T14:57:36.547Z,3.80
2018-09-01T14:59:08.512Z,4.70
2018-09-01T15:00:39.717Z,4.50
2018-09-01T15:03:42.691Z,4.00
2018-09-01T15:05:15.026Z,5.80
2018-09-01T15:06:45.866Z,4.70
2018-09-01T15:08:17.454Z,4.90
2018-09-01T15:09:49.245Z,4.10
2018-09-01T15:11:20.631Z,4.10
2018-09-01T15:12:52.318Z,4.70
2018-09-01T15:14:24.352Z,4.70
2018-09-01T15:15:55.599Z,4.90
2018-09-01T15:17:26.983Z,4.40
2018-09-01T15:18:58.673Z,4.20
2018-09-01T15:20:30.165Z,4.40
2018-09-01T15:22:02.053Z,4.30
2018-09-01T15:23:34.491Z,4.40
2018-09-01T15:25:04.929Z,3.50
2018-09-01T15:26:36.517Z,4.40
2018-09-01T15:31:11.437Z,4.00
2018-09-01T15:32:42.971Z,5.10
2018-09-01T15:34:14.464Z,4.10
2018-09-01T15:35:46.256Z,4.10
2018-09-01T15:41:52.812Z,4.20
2018-09-01T15:44:55.895Z,4.20
2018-09-01T15:46:27.688Z,4.40
2018-09-01T15:49:30.857Z,3.90
2018-09-01T15:52:33.837Z,4.90
2018-09-01T15:54:05.323Z,4.00
2018-09-01T15:57:08.705Z,4.60
2018-09-01T16:01:43.067Z,3.90
2018-09-01T16:04:46.889Z,5.00
2018-09-01T16:06:17.835Z,4.10
2018-09-01T16:07:49.424Z,4.10
2018-09-01T16:09:21.015Z,4.30
2018-09-01T16:10:52.906Z,3.70
2018-09-01T16:12:24.196Z,4.60
2018-09-01T16:13:55.988Z,3.70
2018-09-01T16:15:27.377Z,3.80
2018-09-01T16:16:59.672Z,4.20
2018-09-01T16:18:30.557Z,4.00
2018-09-01T16:20:02.148Z,4.40
2018-09-01T16:21:33.738Z,4.40
2018-09-01T16:26:09.418Z,4.40
2018-09-01T16:27:40.644Z,4.30
2018-09-01T16:30:43.283Z,4.30
2018-09-01T16:33:47.714Z,4.90
2018-09-01T16:36:49.852Z,4.60
2018-09-01T16:38:21.234Z,5.30
2018-09-01T16:39:53.330Z,4.90
2018-09-01T16:41:24.414Z,4.60
2018-09-01T16:44:27.601Z,4.10
2018-09-01T16:45:59.486Z,5.60
2018-09-01T16:47:30.775Z,4.10
2018-09-01T16:49:02.910Z,4.20
2018-09-01T16:50:34.155Z,4.60
2018-09-01T16:52:06.211Z,4.60
2018-09-01T16:58:12.202Z,4.90
2018-09-01T16:59:43.491Z,4.20
2018-09-01T17:01:15.080Z,4.70
2018-09-01T17:02:46.669Z,4.80
2018-09-01T17:04:18.664Z,3.90
2018-09-01T17:05:49.847Z,4.20
2018-09-01T17:07:21.437Z,3.60
2018-09-01T17:08:53.026Z,3.90
2018-09-01T17:10:24.767Z,4.50
2018-09-01T17:11:56.203Z,5.10
2018-09-01T17:14:59.986Z,5.10
2018-09-01T17:18:02.546Z,4.40
2018-09-01T17:19:34.135Z,5.50
2018-09-01T17:21:05.717Z,4.00
2018-09-01T17:22:37.301Z,4.20
2018-09-01T17:24:08.986Z,4.60
2018-09-01T17:27:12.260Z,4.50
2018-09-01T17:28:43.868Z,4.40
2018-09-01T17:30:15.835Z,4.80
2018-09-01T17:31:46.816Z,4.80
2018-09-01T17:34:50.193Z,3.70
2018-09-01T17:36:21.678Z,5.00
2018-09-01T17:37:53.164Z,4.00
2018-09-01T17:42:28.231Z,4.70
2018-09-01T17:43:59.817Z,5.60
2018-09-01T17:45:31.645Z,4.90
2018-09-01T17:47:02.688Z,4.20
2018-09-01T17:48:34.975Z,4.10
2018-09-01T17:50:05.866Z,4.20
2018-09-01T17:51:38.298Z,3.80
2018-09-01T17:53:09.039Z,4.30
2018-09-01T17:54:40.729Z,4.00
2018-09-01T17:57:43.806Z,3.20
2018-09-01T17:59:15.933Z,3.60
2018-09-01T18:00:47.280Z,2.80
2018-09-01T18:08:26.468Z,3.70
2018-09-01T18:09:56.507Z,3.70
2018-09-01T18:11:28.400Z,3.50
2018-09-01T18:12:59.683Z,3.50
2018-09-01T18:14:32.331Z,4.10
2018-09-01T18:16:02.860Z,8.30
2018-09-01T18:19:06.037Z,14.10
2018-09-01T18:22:09.313Z,15.90
2018-09-01T18:23:40.858Z,15.40
2018-09-01T18:25:12.388Z,15.70
2018-09-01T18:28:16.119Z,17.20
2018-09-01T18:29:47.150Z,18.10
2018-09-01T18:32:50.325Z,19.50
2018-09-01T18:34:22.214Z,18.80
2018-09-01T18:35:53.562Z,19.50
2018-09-01T18:37:25.089Z,21.40
2018-09-01T18:42:00.193Z,19.10
2018-09-01T18:43:31.420Z,16.80
2018-09-01T18:45:03.207Z,17.20
2018-09-01T18:46:34.587Z,17.70
2018-09-01T18:48:06.569Z,17.10
2018-09-01T18:49:37.752Z,17.40
2018-09-01T18:52:40.920Z,15.90
2018-09-01T18:54:12.506Z,16.10
2018-09-01T18:55:44.084Z,16.90
2018-09-01T18:57:16.210Z,16.10
2018-09-01T18:58:47.251Z,15.50
2018-09-01T19:00:18.832Z,16.30
2018-09-01T19:01:50.414Z,15.40
2018-09-01T19:03:21.995Z,16.90
2018-09-01T19:04:53.669Z,17.30
2018-09-01T19:06:26.218Z,16.10
2018-09-01T19:07:56.742Z,16.20
2018-09-01T19:09:28.325Z,16.80
2018-09-01T19:12:31.791Z,18.00
2018-09-01T19:15:34.654Z,18.20
2018-09-01T19:17:06.231Z,22.00
2018-09-01T19:20:09.392Z,21.40
2018-09-01T19:21:41.580Z,21.90
2018-09-01T19:23:12.553Z,21.80
2018-09-01T19:24:44.438Z,22.80
2018-09-01T19:26:15.863Z,22.10
2018-09-01T19:27:47.497Z,22.10
2018-09-01T19:30:50.795Z,25.80
2018-09-01T19:32:22.840Z,24.80
2018-09-01T19:33:53.813Z,25.10
2018-09-01T19:35:25.187Z,24.30
2018-09-01T19:36:56.769Z,26.90
2018-09-01T19:38:28.451Z,26.20
2018-09-01T19:40:00.126Z,26.10
2018-09-01T19:41:31.808Z,25.50
2018-09-01T19:43:03.280Z,27.70
2018-09-01T19:44:35.633Z,25.40
2018-09-01T19:46:06.274Z,26.80
2018-09-01T19:49:09.385Z,23.80
2018-09-01T19:50:41.267Z,25.20
2018-09-01T19:52:12.538Z,21.90
2018-09-01T19:55:15.697Z,22.70
2018-09-01T19:56:47.368Z,23.10
2018-09-01T19:58:18.889Z,25.70
2018-09-01T19:59:50.622Z,28.30
2018-09-01T20:01:21.995Z,28.20
2018-09-01T20:02:54.075Z,29.20
2018-09-01T20:04:25.185Z,26.00
2018-09-01T20:05:56.746Z,26.80
2018-09-01T20:07:28.298Z,26.90
2018-09-01T20:09:00.174Z,28.10
2018-09-01T20:10:31.752Z,29.60
2018-09-01T20:12:03.770Z,26.00
2018-09-01T20:13:34.599Z,28.90
2018-09-01T20:15:06.175Z,25.10
2018-09-01T20:16:37.952Z,27.40
2018-09-01T20:18:09.324Z,26.30
2018-09-01T20:19:41.102Z,24.70
2018-09-01T20:21:12.923Z,25.20
2018-09-01T20:22:44.249Z,24.70
2018-09-01T20:24:15.621Z,23.60
2018-09-01T20:25:47.195Z,23.10
2018-09-01T20:27:18.869Z,22.70
2018-09-01T20:28:50.343Z,22.30
2018-09-01T20:30:21.918Z,26.00
2018-09-01T20:31:53.887Z,25.50
2018-09-01T20:33:25.165Z,25.50
2018-09-01T20:36:28.212Z,25.40
2018-09-01T20:37:59.830Z,23.00
2018-09-01T20:39:32.063Z,22.30
2018-09-01T20:41:03.236Z,22.00
2018-09-01T20:42:34.505Z,22.50
2018-09-01T20:44:06.078Z,24.10
2018-09-01T20:45:37.956Z,19.00
2018-09-01T20:47:09.225Z,22.00
2018-09-01T20:48:40.801Z,22.30
2018-09-01T20:50:12.372Z,23.00
2018-09-01T20:51:44.043Z,22.00
2018-09-01T20:53:15.521Z,19.70
2018-09-01T20:54:47.091Z,21.40
2018-09-01T20:56:18.664Z,22.30
2018-09-01T20:57:50.623Z,21.10
2018-09-01T20:59:21.810Z,23.10
2018-09-01T21:02:24.957Z,18.10
2018-09-01T21:03:56.629Z,18.60
2018-09-01T21:05:28.102Z,16.40
2018-09-01T21:06:59.675Z,17.10
2018-09-01T21:08:31.249Z,17.40
2018-09-01T21:11:34.695Z,15.70
2018-09-01T21:13:05.966Z,18.40
2018-09-01T21:14:37.539Z,15.70
2018-09-01T21:16:09.112Z,19.10
2018-09-01T21:17:41.089Z,20.20
2018-09-01T21:20:43.831Z,20.40
2018-09-01T21:22:15.450Z,19.10
2018-09-01T21:23:47.077Z,20.80
2018-09-01T21:25:18.549Z,16.60
2018-09-01T21:26:50.122Z,17.50
2018-09-01T21:28:21.695Z,20.60
2018-09-01T21:29:53.268Z,19.60
2018-09-01T21:31:24.841Z,19.70
2018-09-01T21:32:56.414Z,20.20
2018-09-01T21:34:27.991Z,17.80
2018-09-01T21:35:59.663Z,19.60
2018-09-01T21:37:31.135Z,20.80
2018-09-01T21:39:02.707Z,21.00
2018-09-01T21:40:34.281Z,19.90
2018-09-01T21:42:05.955Z,20.20
2018-09-01T21:43:37.426Z,20.10
2018-09-01T21:45:09.000Z,22.60
2018-09-01T21:46:40.574Z,21.10
2018-09-01T21:48:12.196Z,22.80
2018-09-01T21:49:43.748Z,24.10
2018-09-01T21:51:15.293Z,24.00
2018-09-01T21:52:46.866Z,26.00
2018-09-01T21:54:18.540Z,27.90
2018-09-01T21:55:50.013Z,29.10
2018-09-01T21:57:21.651Z,30.90
2018-09-01T21:58:53.160Z,31.30
2018-09-01T22:00:24.732Z,30.00
2018-09-01T22:01:56.307Z,24.80